Aérodrome :
LOGIN :

S'inscrire | Disclaimer

   EN    FR    IT 

 










Légende :    VFR   VFR Marginal   IFR   IFR Intensif   IFR Très Intensif
Visi : 
Plafond : 
>= 8 km
>= 3000ft
5 à 8 km
1000 à 3000 ft
1500m à 5 km
500 à 1000 ft
800 à 1500m
200 à 500 ft
< 800m
< 200 ft
Symboles :   Orages  Brouillard  Fortes neiges  Fortes précipitations  Vent > 20 kt
SIGMETs :   Divers  Orages  Givrage  Turbulence  Onde Orograph.  Cendres Volcan.







- Altitude de l'aérodrome : 412 ft
- Code IATA : ADB


LTBJ - Adnan Menderes

DERNIER METAR :
  • 170350Z 06007KT 020V090 CAVOK 23/18 Q1008 NOSIG RMK RWY16 36008KT

METARs EXPIRÉS :
  • 170320Z VRB02KT CAVOK 20/18 Q1008 NOSIG RMK RWY16 34006KT
  • 170250Z 16004KT CAVOK 20/18 Q1008 NOSIG RMK RWY16 35007KT
  • 170220Z 16004KT 130V200 CAVOK 20/18 Q1008 NOSIG
  • 170150Z VRB02KT CAVOK 21/18 Q1007 NOSIG RMK RWY16 35008KT
  • 170120Z 05004KT 310V120 CAVOK 23/18 Q1007 NOSIG RMK RWY16 04005KT 350V090

TAF TAF LTBJ
Valide du 17 à 00h jusqu'au 18 à 00h UTC


162240Z 1700/1724 VRB02KT CAVOK
BECMG 1705/1708 35012KT SCT030
TEMPO 1711/1715 01015G25KT -TSRA FEW015CB BKN025
BECMG 1715/1718 VRB02KT
PROB30
TEMPO 1715/1719 -TSRA FEW015CB BKN025
Pas de NOTAMs connus pour ce terrain.



MET'MAP, la Météo Aéronautique d'un coup d'oeil ! - Copyright ORBIFLY Décembre 2007 - Disclaimer

ORBIFLY MET'MAP TEAM :

Programmation & Développement : Alexandra Zaïnal
Conception & Développement : Baudouin d'Aumeries
Co-Programmation & Développement : Marc-Olivier Méhu
Soutien technique & logistique : Manuel Goepfert

Contact : metmap@orbifly.com




SOURCES & CREDITS :

   NOAA